Time;durP1;ratioP1;P1;durP2;ratioP2;P2;SDS_P1;SDS_P2;PMS_P1;PMS_P2;Temp;Humidity;BMP_temperature;BMP_pressure;BME280_temperature;BME280_humidity;BME280_pressure;Samples;Min_cycle;Max_cycle;Signal;HPM_P1;HPM_P2
2023/07/02 00:01:36;;;;;;;8.98;4.03;;;18.20;79.40;;;17.38;100.00;95377.19;5030106;28;20416;-67
2023/07/02 00:04:04;;;;;;;4.60;3.10;;;18.20;79.30;;;17.38;100.00;95387.84;5014257;28;20074;-67
2023/07/02 00:06:32;;;;;;;4.90;3.38;;;18.30;79.10;;;17.38;100.00;95398.47;5024374;28;20033;-67
2023/07/02 00:08:57;;;;;;;5.22;3.35;;;18.20;78.80;;;17.36;100.00;95395.25;5026345;28;20037;-68
2023/07/02 00:11:23;;;;;;;4.05;3.08;;;18.20;79.30;;;17.35;100.00;95393.66;5005453;28;20151;-67
2023/07/02 00:13:49;;;;;;;6.13;3.40;;;18.20;79.20;;;17.34;100.00;95397.34;5015930;28;20858;-67
2023/07/02 00:16:15;;;;;;;4.20;3.25;;;18.20;79.30;;;17.34;100.00;95395.50;5016462;28;20065;-67
2023/07/02 00:18:41;;;;;;;3.63;2.85;;;18.30;79.20;;;17.34;100.00;95397.34;5033389;28;20496;-67
2023/07/02 00:21:06;;;;;;;4.60;2.80;;;18.30;79.20;;;17.35;100.00;95393.66;5018537;28;20449;-67
2023/07/02 00:23:32;;;;;;;4.90;2.90;;;18.30;79.20;;;17.35;100.00;95402.44;5021478;28;20495;-67
2023/07/02 00:25:58;;;;;;;4.75;2.97;;;18.40;79.00;;;17.40;100.00;95412.31;4996071;28;20068;-67
2023/07/02 00:28:24;;;;;;;3.97;2.95;;;18.30;78.90;;;17.39;100.00;95405.38;5019570;28;20578;-67
2023/07/02 00:30:51;;;;;;;3.75;2.60;;;18.30;79.00;;;17.42;100.00;95407.53;5036002;28;20030;-67
2023/07/02 00:33:17;;;;;;;3.97;2.92;;;18.40;78.90;;;17.44;100.00;95408.13;5018872;28;20026;-68
2023/07/02 00:35:43;;;;;;;5.18;2.83;;;18.50;78.60;;;17.48;100.00;95406.56;5027514;28;20079;-68
2023/07/02 00:38:09;;;;;;;4.68;2.63;;;18.50;78.50;;;17.51;100.00;95414.06;5013902;28;20065;-67
2023/07/02 00:40:34;;;;;;;10.65;2.80;;;18.40;78.50;;;17.51;100.00;95414.06;5031421;28;20120;-68
2023/07/02 00:43:00;;;;;;;3.70;2.50;;;18.50;78.50;;;17.53;100.00;95405.81;5035823;28;20068;-67
2023/07/02 00:45:29;;;;;;;5.30;2.67;;;18.50;78.60;;;17.55;100.00;95417.81;5036482;28;20028;-68
2023/07/02 00:47:57;;;;;;;4.93;2.80;;;18.60;78.30;;;17.56;100.00;95424.75;5035803;28;20404;-66
2023/07/02 00:50:23;;;;;;;3.47;2.60;;;18.60;78.50;;;17.58;100.00;95419.97;5019375;28;20036;-66
2023/07/02 00:52:48;;;;;;;6.05;2.35;;;18.60;78.40;;;17.58;100.00;95422.63;5018012;28;20021;-66
2023/07/02 00:55:15;;;;;;;4.15;2.47;;;18.60;78.30;;;17.56;100.00;95419.41;5018166;28;20528;-66
2023/07/02 00:57:46;;;;;;;3.58;2.28;;;18.60;78.30;;;17.61;100.00;95414.16;5014868;28;20037;-67
2023/07/02 01:00:13;;;;;;;5.60;2.83;;;18.70;78.10;;;17.66;100.00;95421.41;5001606;28;20095;-67
2023/07/02 01:02:43;;;;;;;4.60;2.50;;;18.70;77.90;;;17.67;100.00;95423.00;5035691;28;20049;-67
2023/07/02 01:05:14;;;;;;;3.33;2.20;;;18.70;78.10;;;17.67;100.00;95423.00;5034449;28;20044;-65
2023/07/02 01:07:40;;;;;;;;;;;18.70;78.00;;;17.66;100.00;95416.88;5018427;28;20029;-67
2023/07/02 01:10:06;;;;;;;2.90;2.30;;;18.70;78.10;;;17.66;100.00;95421.41;5023884;28;19920;-66
2023/07/02 01:12:32;;;;;;;2.95;2.22;;;18.70;78.20;;;17.64;100.00;95416.31;5002862;28;20037;-67
2023/07/02 01:15:01;;;;;;;4.55;2.63;;;18.60;78.30;;;17.64;100.00;95415.50;4993683;28;20067;-67
2023/07/02 01:17:27;;;;;;;4.38;2.38;;;18.60;78.40;;;17.64;100.00;95418.97;5018624;28;20026;-66
2023/07/02 01:19:58;;;;;;;5.47;2.70;;;18.60;78.50;;;17.64;100.00;95421.63;4994453;28;20123;-66
2023/07/02 01:22:26;;;;;;;3.75;2.22;;;18.60;78.60;;;17.63;100.00;95416.56;4999861;28;20047;-67
2023/07/02 01:24:52;;;;;;;5.00;2.40;;;18.60;78.70;;;17.62;100.00;95415.75;5021814;28;20060;-66
2023/07/02 01:27:18;;;;;;;2.83;2.15;;;18.60;78.70;;;17.62;100.00;95414.94;5035524;28;20096;-67
2023/07/02 01:29:46;;;;;;;3.22;2.22;;;18.60;78.50;;;17.61;100.00;95414.16;5000647;28;20034;-66
2023/07/02 01:32:13;;;;;;;2.72;2.08;;;18.50;78.80;;;17.60;100.00;95423.19;5018135;28;20120;-67
2023/07/02 01:34:38;;;;;;;2.40;1.88;;;18.60;78.60;;;17.62;100.00;95421.06;5017730;28;20461;-66
2023/07/02 01:37:05;;;;;;;2.85;2.05;;;18.60;78.70;;;17.60;100.00;95420.53;5035357;28;20128;-67
2023/07/02 01:39:31;;;;;;;4.13;1.65;;;18.60;78.80;;;17.60;100.00;95422.38;5012066;28;20084;-67
2023/07/02 01:42:11;;;;;;;2.92;2.13;;;18.60;78.70;;;17.62;100.00;95425.59;5002929;28;20121;-66
2023/07/02 01:44:37;;;;;;;3.20;2.00;;;18.60;78.70;;;17.59;100.00;95426.91;5002311;28;20497;-66
2023/07/02 01:47:03;;;;;;;2.60;2.10;;;18.60;79.20;;;17.57;100.00;95421.03;4999886;28;20037;-67
2023/07/02 01:49:29;;;;;;;2.80;1.83;;;18.50;79.20;;;17.52;100.00;95431.63;5018085;28;20060;-67
2023/07/02 01:51:55;;;;;;;2.33;1.80;;;18.40;79.40;;;17.48;100.00;95425.19;5037005;28;20492;-66
2023/07/02 01:54:23;;;;;;;2.88;1.85;;;18.40;79.60;;;17.49;100.00;95431.31;5012528;28;20040;-67
2023/07/02 01:56:48;;;;;;;4.47;1.65;;;18.40;79.60;;;17.44;100.00;95434.72;5019462;28;20033;-65
2023/07/02 01:59:14;;;;;;;3.40;2.00;;;18.40;79.80;;;17.44;100.00;95426.75;5035595;28;20036;-66
2023/07/02 02:01:42;;;;;;;3.63;1.65;;;18.40;79.70;;;17.41;100.00;95430.66;4999212;28;20116;-67
2023/07/02 02:04:08;;;;;;;2.15;1.70;;;18.30;80.00;;;17.40;100.00;95428.25;5019805;28;20037;-68
2023/07/02 02:06:34;;;;;;;2.45;1.92;;;18.30;79.80;;;17.39;100.00;95426.66;5028714;28;20025;-68
2023/07/02 02:09:00;;;;;;;3.22;1.73;;;18.30;80.00;;;17.35;100.00;95425.56;5025010;28;20477;-68
2023/07/02 02:11:26;;;;;;;2.47;1.40;;;18.30;80.10;;;17.38;100.00;95425.06;5014033;28;20040;-68
2023/07/02 02:13:52;;;;;;;1.63;1.45;;;18.30;79.90;;;17.38;100.00;95425.84;5017585;28;20064;-68
2023/07/02 02:16:18;;;;;;;2.83;1.60;;;18.40;79.80;;;17.36;100.00;95419.19;5018613;28;20083;-68
2023/07/02 02:18:43;;;;;;;3.28;1.52;;;18.40;79.70;;;17.38;100.00;95425.06;5016697;28;20034;-68
2023/07/02 02:21:09;;;;;;;2.72;2.05;;;18.40;79.70;;;17.38;100.00;95419.72;5017983;28;20072;-68
2023/07/02 02:23:35;;;;;;;3.55;1.75;;;18.40;79.90;;;17.39;100.00;95416.03;5036745;28;20521;-68
2023/07/02 02:26:00;;;;;;;3.65;1.63;;;18.40;79.70;;;17.36;100.00;95416.53;5015409;28;20040;-68
2023/07/02 02:28:26;;;;;;;11.30;2.10;;;18.40;79.80;;;17.37;100.00;95423.44;5012615;28;20021;-68
2023/07/02 02:30:52;;;;;;;2.70;1.90;;;18.40;79.90;;;17.38;100.00;95430.38;5006405;28;20060;-68
2023/07/02 02:33:17;;;;;;;6.10;1.90;;;18.40;79.80;;;17.39;100.00;95432.78;5017903;28;20064;-68
2023/07/02 02:35:43;;;;;;;3.75;1.55;;;18.50;79.70;;;17.42;100.00;95434.94;5038184;28;20432;-68
2023/07/02 02:38:09;;;;;;;4.53;1.80;;;18.50;79.70;;;17.41;100.00;95425.34;5016671;28;20592;-68
2023/07/02 02:40:35;;;;;;;3.55;1.55;;;18.40;79.90;;;17.42;100.00;95426.97;5001352;28;20065;-68
2023/07/02 02:43:00;;;;;;;2.33;1.75;;;18.50;80.00;;;17.43;100.00;95438.44;5021347;28;20029;-68
2023/07/02 02:45:26;;;;;;;3.40;1.80;;;18.60;80.20;;;17.43;100.00;95439.22;4996419;28;20029;-68
2023/07/02 02:47:52;;;;;;;3.10;2.13;;;18.60;80.40;;;17.43;100.00;95465.00;4978658;28;20053;-68
2023/07/02 02:50:18;;;;;;;3.95;2.00;;;18.50;81.30;;;17.42;100.00;95468.69;5011649;28;20492;-68
2023/07/02 02:52:43;;;;;;;3.95;2.30;;;18.40;82.10;;;17.42;100.00;95466.03;5022252;28;20490;-68
2023/07/02 02:55:10;;;;;;;3.42;2.33;;;18.50;82.00;;;17.38;100.00;95463.06;5034470;28;20044;-68
2023/07/02 02:57:36;;;;;;;2.88;2.10;;;18.30;80.90;;;17.31;100.00;95462.47;4998573;28;20112;-68
2023/07/02 03:00:02;;;;;;;3.20;1.80;;;18.20;80.40;;;17.31;100.00;95459.00;5020116;28;20501;-68
2023/07/02 03:02:28;;;;;;;2.65;1.67;;;18.20;80.00;;;17.27;100.00;95460.53;5015562;28;20540;-68
2023/07/02 03:04:54;;;;;;;2.65;1.63;;;18.10;79.10;;;17.22;100.00;95463.16;5012782;28;20041;-68
2023/07/02 03:07:20;;;;;;;3.20;1.90;;;18.20;78.90;;;17.21;100.00;95472.16;5002955;28;20044;-66
2023/07/02 03:09:45;;;;;;;4.00;1.92;;;18.20;78.90;;;17.19;100.00;95474.25;5040995;28;20026;-66
2023/07/02 03:12:11;;;;;;;4.28;2.00;;;18.20;77.60;;;17.17;100.00;95484.31;5023324;28;20044;-67
2023/07/02 03:14:40;;;;;;;4.55;1.83;;;18.10;78.00;;;17.12;100.00;95485.84;5034205;28;20472;-69
2023/07/02 03:17:06;;;;;;;4.10;1.85;;;18.10;78.50;;;17.07;100.00;95483.13;5013993;28;20130;-66
2023/07/02 03:19:31;;;;;;;4.03;1.90;;;18.00;78.70;;;17.04;100.00;95486.28;5018053;28;20041;-66
2023/07/02 03:21:57;;;;;;;3.97;2.10;;;18.00;78.40;;;17.01;100.00;95489.44;5014836;28;20037;-66
2023/07/02 03:24:23;;;;;;;4.53;2.30;;;18.10;78.60;;;16.99;100.00;95491.53;4996246;28;20033;-66
2023/07/02 03:26:49;;;;;;;5.47;1.98;;;18.10;78.90;;;16.96;100.00;95502.63;5021001;28;20033;-66
2023/07/02 03:29:15;;;;;;;4.53;1.90;;;18.00;79.10;;;16.95;100.00;95503.66;4996441;28;20456;-67
2023/07/02 03:31:41;;;;;;;3.28;1.88;;;18.00;79.20;;;16.91;100.00;95505.22;5008076;28;20040;-66
2023/07/02 03:34:09;;;;;;;4.18;2.10;;;18.10;79.30;;;16.88;100.00;95503.03;5012081;28;20021;-66
2023/07/02 03:36:35;;;;;;;4.00;2.35;;;18.00;78.70;;;16.80;100.00;95498.94;4997611;28;20109;-66
2023/07/02 03:39:01;;;;;;;2.92;1.85;;;17.80;77.30;;;16.78;100.00;95497.59;5001746;28;20547;-66
2023/07/02 03:41:28;;;;;;;4.78;2.28;;;17.80;77.40;;;16.73;100.00;95503.59;5021786;28;20030;-66
2023/07/02 03:43:54;;;;;;;3.35;2.20;;;17.70;76.00;;;16.66;100.00;95502.97;5010475;28;20120;-67
2023/07/02 03:46:19;;;;;;;6.47;2.10;;;17.70;77.20;;;16.63;100.00;95518.53;5020065;28;20091;-66
2023/07/02 03:48:45;;;;;;;4.38;2.10;;;17.60;76.80;;;16.56;100.00;95516.06;5013960;28;20435;-66
2023/07/02 03:51:14;;;;;;;4.45;2.00;;;17.60;76.30;;;16.50;100.00;95519.66;5014696;28;20039;-67
2023/07/02 03:53:43;;;;;;;5.40;2.30;;;17.40;77.20;;;16.46;100.00;95516.69;5007851;28;20056;-66
2023/07/02 03:56:08;;;;;;;3.97;2.08;;;17.50;77.00;;;16.45;100.00;95512.41;5020644;28;20096;-66
2023/07/02 03:58:34;;;;;;;3.15;2.20;;;17.40;77.30;;;16.37;100.00;95507.50;5005298;28;20419;-67
2023/07/02 04:01:00;;;;;;;4.00;2.45;;;17.30;77.60;;;16.35;100.00;95512.25;5010642;28;20040;-66
2023/07/02 04:03:26;;;;;;;5.18;2.38;;;17.40;77.80;;;16.28;100.00;95516.88;5001867;28;20025;-67
2023/07/02 04:05:52;;;;;;;6.13;2.35;;;17.20;77.70;;;16.20;100.00;95519.94;4989873;28;20555;-66
2023/07/02 04:08:17;;;;;;;4.03;2.60;;;17.10;78.20;;;16.12;100.00;95518.47;5044643;28;20037;-67
2023/07/02 04:10:43;;;;;;;5.63;2.55;;;17.00;78.40;;;16.05;100.00;95523.09;5007037;28;20063;-68
2023/07/02 04:13:09;;;;;;;6.47;2.40;;;17.00;78.70;;;16.02;100.00;95518.28;4995405;28;20036;-66
2023/07/02 04:15:35;;;;;;;4.45;2.38;;;16.90;79.00;;;15.98;100.00;95521.63;4996387;28;20500;-66
2023/07/02 04:18:01;;;;;;;8.73;2.83;;;16.90;79.10;;;15.92;100.00;95523.41;5039605;28;20033;-66
2023/07/02 04:20:28;;;;;;;3.20;2.38;;;16.90;79.40;;;15.85;100.00;95518.25;5010789;28;20551;-66
2023/07/02 04:22:54;;;;;;;9.60;2.80;;;16.80;79.60;;;15.84;100.00;95527.25;5021303;28;20045;-66
2023/07/02 04:25:20;;;;;;;13.80;3.35;;;16.80;80.10;;;15.82;100.00;95531.13;5021822;28;20396;-66
2023/07/02 04:27:45;;;;;;;5.00;2.58;;;16.80;80.10;;;15.78;100.00;95538.75;5014180;28;20021;-66
2023/07/02 04:30:11;;;;;;;7.18;2.63;;;16.70;80.10;;;15.70;100.00;95533.03;5015528;28;20053;-65
2023/07/02 04:32:39;;;;;;;6.10;2.88;;;16.60;80.30;;;15.63;100.00;95535.81;5013872;28;20021;-65
2023/07/02 04:35:08;;;;;;;3.60;2.72;;;16.50;80.60;;;15.59;100.00;95539.97;5020418;28;20406;-66
2023/07/02 04:37:35;;;;;;;7.07;3.10;;;16.60;80.40;;;15.57;100.00;95536.72;5010147;28;20044;-66
2023/07/02 04:40:00;;;;;;;4.45;2.45;;;16.50;80.90;;;15.51;100.00;95527.03;5012029;28;20069;-65
2023/07/02 04:42:31;;;;;;;4.43;2.60;;;16.50;80.60;;;15.53;100.00;95540.88;5033330;28;20121;-65
2023/07/02 04:45:01;;;;;;;;;;;16.60;80.70;;;15.50;100.00;95546.63;5012895;28;20040;-67
2023/07/02 04:47:29;;;;;;;5.05;3.15;;;16.50;80.60;;;15.51;100.00;95537.66;5014229;28;19952;-67
2023/07/02 04:49:55;;;;;;;7.00;2.90;;;16.60;80.50;;;15.53;100.00;95540.88;5017872;28;20131;-66
2023/07/02 04:52:21;;;;;;;3.70;2.28;;;16.60;80.30;;;15.55;100.00;95544.09;5027343;28;20054;-66
2023/07/02 04:54:46;;;;;;;3.55;2.80;;;16.70;80.00;;;15.58;100.00;95543.63;5036843;28;20041;-66
2023/07/02 04:57:14;;;;;;;4.93;2.97;;;16.80;79.90;;;15.60;100.00;95549.53;5021114;28;20164;-66
2023/07/02 04:59:41;;;;;;;5.53;3.00;;;16.80;79.80;;;15.60;100.00;95545.03;5020491;28;20162;-66
2023/07/02 05:02:07;;;;;;;6.00;2.80;;;16.80;79.70;;;15.60;100.00;95546.88;4998254;28;20512;-66
2023/07/02 05:04:33;;;;;;;7.28;3.00;;;16.70;79.80;;;15.62;100.00;95555.44;5013748;28;20063;-67
2023/07/02 05:07:00;;;;;;;3.53;2.28;;;16.70;80.20;;;15.64;100.00;95558.66;5041549;28;20120;-67
2023/07/02 05:09:25;;;;;;;6.95;2.97;;;16.70;80.20;;;15.65;100.00;95562.91;5013700;28;20528;-67
2023/07/02 05:11:51;;;;;;;6.00;2.78;;;16.70;80.40;;;15.65;100.00;95562.91;5031927;28;20052;-66
2023/07/02 05:14:17;;;;;;;7.25;3.40;;;16.80;80.40;;;15.69;100.00;95572.00;5026757;28;20076;-65
2023/07/02 05:16:43;;;;;;;5.28;2.90;;;16.80;80.20;;;15.70;100.00;95568.31;5043153;28;20422;-65
2023/07/02 05:19:08;;;;;;;4.45;2.70;;;16.80;80.20;;;15.72;100.00;95576.03;5014165;28;20560;-66
2023/07/02 05:21:34;;;;;;;4.45;2.83;;;16.90;80.20;;;15.78;100.00;95575.88;4996701;28;20505;-66
2023/07/02 05:24:00;;;;;;;4.68;3.10;;;17.00;80.00;;;15.77;100.00;95568.97;5024764;28;20033;-66
2023/07/02 05:26:26;;;;;;;6.70;3.53;;;17.00;80.00;;;15.83;100.00;95572.53;4997917;28;20108;-67
2023/07/02 05:28:53;;;;;;;6.05;3.25;;;17.10;79.50;;;15.88;100.00;95580.63;5036045;28;20080;-69
2023/07/02 05:31:18;;;;;;;5.10;2.55;;;17.10;79.30;;;15.91;100.00;95573.00;5005949;28;20034;-64
2023/07/02 05:33:44;;;;;;;5.15;2.75;;;17.30;79.20;;;15.99;100.00;95577.09;4995512;28;20035;-64
2023/07/02 05:36:10;;;;;;;4.40;2.47;;;17.40;78.80;;;16.06;100.00;95576.97;5016862;28;20136;-66
2023/07/02 05:38:36;;;;;;;4.45;3.15;;;17.50;78.70;;;16.15;100.00;95571.06;5013231;28;20125;-64
2023/07/02 05:41:04;;;;;;;5.63;2.90;;;17.70;77.80;;;16.24;100.00;95568.81;4991036;28;20099;-65
2023/07/02 05:43:30;;;;;;;5.15;2.83;;;17.70;78.20;;;16.35;100.00;95570.66;4998955;28;20075;-65
2023/07/02 05:46:00;;;;;;;5.32;2.95;;;17.90;77.60;;;16.49;100.00;95576.44;5024957;28;20508;-65
2023/07/02 05:48:26;;;;;;;2.95;2.38;;;18.10;77.10;;;16.59;100.00;95570.53;4979958;28;20037;-66
2023/07/02 05:50:52;;;;;;;5.07;2.58;;;18.10;76.50;;;16.71;100.00;95579.25;5004385;28;20034;-65
2023/07/02 05:53:18;;;;;;;4.28;2.42;;;18.30;76.50;;;16.78;100.00;95577.25;5009966;28;20563;-65
2023/07/02 05:55:43;;;;;;;5.78;2.80;;;18.20;76.60;;;16.82;100.00;95570.41;5017538;28;20800;-66
2023/07/02 05:58:10;;;;;;;3.75;2.25;;;18.30;76.80;;;16.91;100.00;95576.13;4998791;28;20578;-66
2023/07/02 06:00:36;;;;;;;5.63;2.53;;;18.40;77.30;;;16.94;100.00;95579.09;4984055;28;20044;-65
2023/07/02 06:03:01;;;;;;;3.30;2.38;;;18.40;76.60;;;16.99;100.00;95581.88;5010588;28;20139;-65
2023/07/02 06:05:29;;;;;;;4.13;2.78;;;18.40;76.00;;;16.98;100.00;95579.44;5011278;28;20065;-65
2023/07/02 06:07:55;;;;;;;5.70;2.78;;;18.20;75.50;;;16.98;100.00;95596.19;4991196;28;20041;-66
2023/07/02 06:10:21;;;;;;;5.15;2.78;;;18.20;75.90;;;16.99;100.00;95599.66;5015677;28;20045;-65
2023/07/02 06:12:47;;;;;;;4.47;2.72;;;18.20;75.80;;;16.96;100.00;95606.22;5035820;28;20041;-66
2023/07/02 06:15:12;;;;;;;6.57;4.45;;;18.10;75.80;;;16.94;100.00;95612.84;5004387;28;20111;-65
2023/07/02 06:17:38;;;;;;;6.30;4.38;;;18.10;76.40;;;16.92;100.00;95613.06;4997444;28;20581;-65
2023/07/02 06:20:05;;;;;;;5.18;3.00;;;18.10;76.60;;;16.92;100.00;95614.94;5018657;28;20856;-65
2023/07/02 06:22:31;;;;;;;3.97;3.13;;;18.10;76.40;;;16.91;100.00;95611.47;4996187;28;20038;-65
2023/07/02 06:24:57;;;;;;;7.05;4.07;;;18.10;76.10;;;16.90;100.00;95623.16;5019418;28;20472;-65
2023/07/02 06:27:23;;;;;;;6.13;4.10;;;18.10;76.40;;;16.92;100.00;95621.06;5033659;28;20799;-65
2023/07/02 06:29:50;;;;;;;6.15;2.97;;;18.10;76.40;;;16.93;100.00;95617.34;5003240;28;20521;-66
2023/07/02 06:32:16;;;;;;;5.10;2.70;;;18.20;76.60;;;16.93;100.00;95614.69;5033027;28;20033;-66
2023/07/02 06:34:41;;;;;;;5.75;3.80;;;18.10;76.40;;;16.97;100.00;95621.13;5021602;28;20118;-68
2023/07/02 06:37:07;;;;;;;9.18;3.63;;;18.30;76.00;;;16.98;100.00;95625.44;5011158;28;20064;-66
2023/07/02 06:39:33;;;;;;;9.60;6.20;;;18.20;75.30;;;16.96;100.00;95624.84;5034319;28;20703;-68
2023/07/02 06:41:58;;;;;;;13.73;10.20;;;18.20;75.50;;;17.01;100.00;95622.28;4991327;28;20781;-67
2023/07/02 06:44:24;;;;;;;5.85;3.33;;;18.40;75.40;;;17.05;100.00;95620.75;4998486;28;20061;-67
2023/07/02 06:46:50;;;;;;;5.03;2.88;;;18.40;74.80;;;17.05;100.00;95618.09;5013664;28;20505;-66
2023/07/02 06:49:16;;;;;;;6.70;3.83;;;18.30;74.60;;;17.08;100.00;95628.22;5010214;28;20029;-65
2023/07/02 06:51:41;;;;;;;5.13;2.97;;;18.50;74.80;;;17.11;100.00;95626.94;5020484;28;20056;-66
2023/07/02 06:54:07;;;;;;;4.75;2.63;;;18.40;74.80;;;17.13;100.00;95630.97;4999132;28;20030;-66
2023/07/02 06:56:34;;;;;;;5.90;2.83;;;18.50;74.80;;;17.20;100.00;95635.31;4976203;28;20045;-67
2023/07/02 06:59:00;;;;;;;5.28;2.65;;;18.60;74.70;;;17.24;100.00;95636.47;5003449;28;20038;-67
2023/07/02 07:01:26;;;;;;;5.60;2.85;;;18.60;74.70;;;17.26;100.00;95637.03;5021633;28;20658;-67
2023/07/02 07:03:52;;;;;;;4.82;2.78;;;18.60;74.50;;;17.26;100.00;95645.00;4973709;28;20071;-66
2023/07/02 07:06:18;;;;;;;4.78;2.80;;;18.50;74.30;;;17.25;100.00;95648.72;5014845;28;20043;-66
2023/07/02 07:08:43;;;;;;;3.30;2.35;;;18.40;75.00;;;17.25;100.00;95651.38;5032953;28;20057;-65
2023/07/02 07:11:09;;;;;;;4.85;2.67;;;18.60;74.90;;;17.25;100.00;95659.34;5003255;28;20052;-65
2023/07/02 07:13:38;;;;;;;4.25;2.92;;;18.50;75.50;;;17.24;100.00;95657.72;5017277;28;20059;-65
2023/07/02 07:16:04;;;;;;;13.98;7.70;;;18.50;76.10;;;17.23;100.00;95664.09;5017764;28;20041;-67
2023/07/02 07:18:29;;;;;;;4.93;2.90;;;18.40;75.80;;;17.17;100.00;95659.72;5020646;28;20621;-67
2023/07/02 07:20:55;;;;;;;4.68;2.88;;;18.20;75.50;;;17.11;100.00;95670.28;5032803;28;20065;-66
2023/07/02 07:23:21;;;;;;;7.22;3.05;;;18.20;76.30;;;17.04;100.00;95664.31;5000585;28;20092;-68
2023/07/02 07:25:50;;;;;;;4.57;2.35;;;18.30;76.20;;;17.02;100.00;95663.75;5000259;28;20111;-69
2023/07/02 07:28:16;;;;;;;6.43;2.80;;;18.30;76.70;;;16.96;100.00;95658.56;5016302;28;20029;-69
2023/07/02 07:30:43;;;;;;;5.03;2.90;;;18.30;76.80;;;16.96;100.00;95667.34;5010407;28;20083;-68
2023/07/02 07:33:09;;;;;;;5.07;2.90;;;18.20;77.30;;;16.93;100.00;95662.50;5013217;28;20620;-69
2023/07/02 07:35:35;;;;;;;4.55;2.60;;;18.10;77.60;;;16.90;100.00;95667.50;5042983;28;20033;-67
2023/07/02 07:38:01;;;;;;;4.50;2.83;;;18.10;77.60;;;16.88;100.00;95664.28;5017590;28;20040;-67
2023/07/02 07:40:27;;;;;;;5.53;2.67;;;18.10;77.50;;;16.90;100.00;95656.88;5018260;28;20040;-67
2023/07/02 07:42:52;;;;;;;3.63;2.85;;;18.20;77.30;;;16.93;100.00;95657.19;4987381;28;20064;-67
2023/07/02 07:45:18;;;;;;;3.50;2.50;;;18.30;77.40;;;17.00;100.00;95657.88;5006925;28;20064;-66
2023/07/02 07:47:44;;;;;;;5.38;3.03;;;18.40;76.50;;;17.00;100.00;95663.19;5014843;28;20121;-67
2023/07/02 07:50:10;;;;;;;5.80;2.83;;;18.30;77.80;;;17.08;100.00;95659.31;5012728;28;20777;-66
2023/07/02 07:52:42;;;;;;;5.07;2.78;;;18.60;78.40;;;17.21;100.00;95656.38;5033943;28;20560;-69
2023/07/02 07:55:08;;;;;;;4.25;2.72;;;18.90;77.00;;;17.33;100.00;95661.59;5006986;28;20037;-67
2023/07/02 07:57:35;;;;;;;4.25;2.75;;;18.90;75.50;;;17.42;100.00;95670.75;5000301;28;20477;-68
2023/07/02 08:00:01;;;;;;;6.43;3.08;;;19.10;75.50;;;17.53;100.00;95672.53;5001324;28;20041;-68
2023/07/02 08:02:26;;;;;;;6.70;2.78;;;19.30;75.20;;;17.67;100.00;95668.53;5017676;28;20041;-66
2023/07/02 08:04:52;;;;;;;4.28;2.30;;;19.60;73.30;;;17.82;100.00;95670.59;5012703;28;20061;-66
2023/07/02 08:07:18;;;;;;;7.15;2.60;;;19.90;73.40;;;17.97;100.00;95667.34;5020122;28;20095;-66
2023/07/02 08:09:44;;;;;;;6.47;3.00;;;19.90;72.80;;;17.99;100.00;95666.06;4995114;28;20847;-65
2023/07/02 08:12:10;;;;;;;6.20;2.80;;;19.60;72.90;;;18.03;100.00;95671.69;5015814;28;20843;-66
2023/07/02 08:14:35;;;;;;;3.97;2.47;;;19.60;73.80;;;18.04;100.00;95673.28;5020109;28;20625;-65
2023/07/02 08:17:01;;;;;;;5.80;2.90;;;19.60;74.00;;;18.00;100.00;95678.31;5016353;28;20115;-65
2023/07/02 08:19:27;;;;;;;4.88;3.30;;;19.40;73.10;;;18.00;100.00;95674.84;4991710;23;20085;-63
2023/07/02 08:21:53;;;;;;;10.27;7.32;;;19.50;73.90;;;17.97;100.00;95678.81;4943428;28;20069;-62
2023/07/02 08:24:18;;;;;;;6.70;3.88;;;19.50;73.90;;;17.96;100.00;95679.06;4985403;28;20062;-63
2023/07/02 08:26:45;;;;;;;7.15;4.78;;;19.30;73.60;;;17.89;100.00;95681.91;4959706;28;20041;-63
2023/07/02 08:29:11;;;;;;;6.53;2.83;;;19.10;74.00;;;17.83;100.00;95684.72;4962530;28;20070;-65
2023/07/02 08:31:37;;;;;;;5.43;3.03;;;19.00;75.10;;;17.79;100.00;95700.34;4970331;28;20410;-62
2023/07/02 08:34:03;;;;;;;5.28;3.10;;;19.00;75.90;;;17.72;100.00;95694.41;4973941;28;20058;-62
2023/07/02 08:36:28;;;;;;;5.72;2.63;;;19.00;76.00;;;17.67;100.00;95694.31;4971896;28;20061;-63
2023/07/02 08:38:54;;;;;;;4.00;2.30;;;18.90;75.00;;;17.64;100.00;95706.22;4961261;28;20038;-63
2023/07/02 08:41:23;;;;;;;3.60;2.08;;;19.00;75.40;;;17.63;100.00;95698.47;4980429;28;20046;-63
2023/07/02 08:43:49;;;;;;;4.30;2.38;;;18.80;75.20;;;17.64;100.00;95697.44;4978597;28;20038;-65
2023/07/02 08:46:16;;;;;;;4.03;2.40;;;19.10;74.90;;;17.67;100.00;95702.28;4978811;28;20056;-67
2023/07/02 08:48:42;;;;;;;4.70;2.30;;;19.10;74.10;;;17.64;100.00;95700.88;5000792;28;20668;-68
2023/07/02 08:51:08;;;;;;;5.05;2.30;;;18.90;74.20;;;17.63;100.00;95699.28;4975278;28;20054;-68
2023/07/02 08:53:34;;;;;;;4.82;2.42;;;19.10;74.00;;;17.68;100.00;95702.06;4973575;28;20092;-63
2023/07/02 08:56:09;;;;;;;4.28;2.60;;;19.30;73.60;;;17.77;100.00;95705.13;4975882;28;20038;-63
2023/07/02 08:58:34;;;;;;;6.20;2.78;;;19.50;73.00;;;17.81;100.00;95702.78;4973956;28;20038;-63
2023/07/02 09:01:14;;;;;;;4.68;2.88;;;19.30;72.60;;;17.90;100.00;95702.13;4993240;28;20034;-63
2023/07/02 09:03:40;;;;;;;11.93;10.45;;;19.50;72.00;;;17.98;100.00;95704.38;4982237;28;20030;-63
2023/07/02 09:06:07;;;;;;;12.85;9.68;;;19.70;72.70;;;18.10;100.00;95704.25;4977846;28;20115;-63
2023/07/02 09:08:33;;;;;;;7.72;6.65;;;19.90;72.00;;;18.22;100.00;95702.28;4978500;28;20034;-63
2023/07/02 09:11:09;;;;;;;4.82;3.33;;;20.10;71.50;;;18.40;100.00;95695.06;4975709;28;20414;-64
2023/07/02 09:14:01;;;;;;;5.30;2.90;;;20.40;72.00;;;18.53;100.00;95692.81;4992246;28;20084;-66
2023/07/02 09:16:32;;;;;;;4.38;2.67;;;20.50;69.70;;;18.72;100.00;95696.00;4964537;28;20035;-65
2023/07/02 09:19:03;;;;;;;4.05;2.85;;;20.90;69.50;;;18.90;100.00;95697.53;4975602;28;20509;-64
2023/07/02 09:21:46;;;;;;;4.55;2.88;;;21.00;67.90;;;19.07;100.00;95692.09;4960647;28;20080;-67
2023/07/02 09:24:13;;;;;;;3.80;2.47;;;21.10;68.20;;;19.19;100.00;95692.75;4996872;28;20042;-64
2023/07/02 09:26:45;;;;;;;3.63;2.50;;;21.30;68.00;;;19.32;96.83;95689.66;4983505;28;20048;-66
2023/07/02 09:29:12;;;;;;;7.95;5.50;;;21.40;66.30;;;19.47;99.22;95686.34;4962579;28;20034;-63
2023/07/02 09:31:45;;;;;;;5.43;3.00;;;21.80;67.10;;;19.66;95.41;95692.88;4992037;28;20109;-63
2023/07/02 09:34:12;;;;;;;4.05;2.70;;;22.00;64.60;;;19.79;97.36;95689.00;4992392;28;20038;-63
2023/07/02 09:36:40;;;;;;;4.25;2.60;;;22.10;65.40;;;19.93;95.68;95679.47;4984238;28;20030;-62
2023/07/02 09:39:10;;;;;;;3.75;2.42;;;22.20;65.00;;;20.02;94.49;95683.25;4992268;28;20132;-63
2023/07/02 09:41:36;;;;;;;4.33;2.80;;;22.10;64.80;;;20.10;95.40;95684.63;4974042;28;20037;-64
2023/07/02 09:44:02;;;;;;;3.72;2.60;;;22.20;65.30;;;20.17;94.90;95680.69;4971250;28;20368;-66
2023/07/02 09:46:28;;;;;;;6.40;3.05;;;22.20;65.60;;;20.23;94.04;95686.03;4978098;28;20060;-69
2023/07/02 09:48:53;;;;;;;7.40;3.63;;;22.10;65.60;;;20.29;94.36;95693.81;4957140;28;20058;-63
2023/07/02 09:51:19;;;;;;;6.88;3.00;;;22.40;65.30;;;20.38;93.57;95689.59;4974037;28;20037;-63
2023/07/02 09:53:45;;;;;;;6.65;3.75;;;22.50;64.80;;;20.55;91.66;95676.06;4978202;28;20033;-63
2023/07/02 09:56:11;;;;;;;5.93;3.60;;;22.90;62.50;;;20.78;90.81;95680.13;4993363;28;20133;-63
2023/07/02 09:58:39;;;;;;;6.20;3.50;;;23.30;61.30;;;21.00;89.87;95674.56;4991318;28;20068;-63
2023/07/02 10:01:05;;;;;;;9.02;3.28;;;23.70;60.40;;;21.19;89.18;95678.34;4975967;28;20045;-63
2023/07/02 10:03:31;;;;;;;6.90;3.80;;;23.90;60.20;;;21.34;86.90;95682.97;4978460;28;20061;-63
2023/07/02 10:06:06;;;;;;;6.47;4.00;;;23.70;58.90;;;21.43;81.32;95669.84;4973975;28;20026;-63
2023/07/02 10:08:32;;;;;;;7.03;3.55;;;23.70;57.70;;;21.43;84.39;95678.66;4991065;28;20034;-63
2023/07/02 10:11:13;;;;;;;6.35;3.92;;;23.50;58.70;;;21.45;80.54;95675.72;4954417;28;20080;-63